sensor_id;sensor_type;location;lat;lon;timestamp;P1;durP1;ratioP1;P2;durP2;ratioP2
68050;SDS011;54839;51.364;7.246;2023-11-19T00:00:21;2.87;;;1.40;;
68050;SDS011;54839;51.364;7.246;2023-11-19T00:02:47;1.50;;;1.40;;
68050;SDS011;54839;51.364;7.246;2023-11-19T00:05:12;1.60;;;1.10;;
68050;SDS011;54839;51.364;7.246;2023-11-19T00:07:38;2.13;;;1.77;;
68050;SDS011;54839;51.364;7.246;2023-11-19T00:10:10;1.67;;;1.50;;
68050;SDS011;54839;51.364;7.246;2023-11-19T00:12:38;2.47;;;2.30;;
68050;SDS011;54839;51.364;7.246;2023-11-19T00:15:09;2.27;;;2.17;;
68050;SDS011;54839;51.364;7.246;2023-11-19T00:17:37;1.87;;;1.77;;
68050;SDS011;54839;51.364;7.246;2023-11-19T00:20:05;2.27;;;2.17;;
68050;SDS011;54839;51.364;7.246;2023-11-19T00:22:32;1.57;;;1.47;;
68050;SDS011;54839;51.364;7.246;2023-11-19T00:24:57;2.90;;;2.07;;
68050;SDS011;54839;51.364;7.246;2023-11-19T00:27:24;2.23;;;2.03;;
68050;SDS011;54839;51.364;7.246;2023-11-19T00:29:50;2.90;;;2.60;;
68050;SDS011;54839;51.364;7.246;2023-11-19T00:32:15;2.63;;;2.43;;
68050;SDS011;54839;51.364;7.246;2023-11-19T00:34:43;3.63;;;3.33;;
68050;SDS011;54839;51.364;7.246;2023-11-19T00:37:12;4.87;;;3.47;;
68050;SDS011;54839;51.364;7.246;2023-11-19T00:39:41;3.97;;;3.20;;
68050;SDS011;54839;51.364;7.246;2023-11-19T00:42:08;3.03;;;2.37;;
68050;SDS011;54839;51.364;7.246;2023-11-19T00:44:35;5.10;;;3.27;;
68050;SDS011;54839;51.364;7.246;2023-11-19T00:47:01;6.50;;;2.37;;
68050;SDS011;54839;51.364;7.246;2023-11-19T00:49:26;3.67;;;3.37;;
68050;SDS011;54839;51.364;7.246;2023-11-19T00:51:52;3.50;;;3.20;;
68050;SDS011;54839;51.364;7.246;2023-11-19T00:54:17;2.83;;;2.63;;
68050;SDS011;54839;51.364;7.246;2023-11-19T00:56:43;3.40;;;3.10;;
68050;SDS011;54839;51.364;7.246;2023-11-19T00:59:09;3.07;;;2.77;;
68050;SDS011;54839;51.364;7.246;2023-11-19T01:01:35;4.60;;;3.83;;
68050;SDS011;54839;51.364;7.246;2023-11-19T01:04:01;4.10;;;3.10;;
68050;SDS011;54839;51.364;7.246;2023-11-19T01:06:27;3.87;;;2.67;;
68050;SDS011;54839;51.364;7.246;2023-11-19T01:08:56;3.90;;;3.47;;
68050;SDS011;54839;51.364;7.246;2023-11-19T01:11:24;2.83;;;2.40;;
68050;SDS011;54839;51.364;7.246;2023-11-19T01:13:50;3.77;;;3.47;;
68050;SDS011;54839;51.364;7.246;2023-11-19T01:16:17;3.27;;;2.97;;
68050;SDS011;54839;51.364;7.246;2023-11-19T01:18:44;3.43;;;3.13;;
68050;SDS011;54839;51.364;7.246;2023-11-19T01:21:11;4.60;;;4.13;;
68050;SDS011;54839;51.364;7.246;2023-11-19T01:23:37;4.30;;;2.60;;
68050;SDS011;54839;51.364;7.246;2023-11-19T01:26:03;4.97;;;2.70;;
68050;SDS011;54839;51.364;7.246;2023-11-19T01:28:30;3.50;;;2.77;;
68050;SDS011;54839;51.364;7.246;2023-11-19T01:30:56;3.30;;;2.00;;
68050;SDS011;54839;51.364;7.246;2023-11-19T01:33:21;1.60;;;1.30;;
68050;SDS011;54839;51.364;7.246;2023-11-19T01:35:47;1.30;;;1.00;;
68050;SDS011;54839;51.364;7.246;2023-11-19T01:38:12;1.60;;;1.40;;
68050;SDS011;54839;51.364;7.246;2023-11-19T01:40:38;2.13;;;1.13;;
68050;SDS011;54839;51.364;7.246;2023-11-19T01:43:03;1.30;;;1.00;;
68050;SDS011;54839;51.364;7.246;2023-11-19T01:45:30;1.40;;;1.30;;
68050;SDS011;54839;51.364;7.246;2023-11-19T01:48:00;2.53;;;2.20;;
68050;SDS011;54839;51.364;7.246;2023-11-19T01:50:29;2.73;;;2.40;;
68050;SDS011;54839;51.364;7.246;2023-11-19T01:52:56;2.50;;;1.93;;
68050;SDS011;54839;51.364;7.246;2023-11-19T01:55:22;3.33;;;2.40;;
68050;SDS011;54839;51.364;7.246;2023-11-19T01:57:50;3.93;;;3.30;;
68050;SDS011;54839;51.364;7.246;2023-11-19T02:00:18;2.70;;;2.27;;
68050;SDS011;54839;51.364;7.246;2023-11-19T02:02:44;2.50;;;2.30;;
68050;SDS011;54839;51.364;7.246;2023-11-19T02:05:12;3.70;;;3.40;;
68050;SDS011;54839;51.364;7.246;2023-11-19T02:07:38;2.10;;;1.90;;
68050;SDS011;54839;51.364;7.246;2023-11-19T02:10:04;2.83;;;2.63;;
68050;SDS011;54839;51.364;7.246;2023-11-19T02:12:31;10.23;;;3.10;;
68050;SDS011;54839;51.364;7.246;2023-11-19T02:15:00;4.13;;;2.87;;
68050;SDS011;54839;51.364;7.246;2023-11-19T02:17:27;2.47;;;2.27;;
68050;SDS011;54839;51.364;7.246;2023-11-19T02:19:56;3.27;;;2.50;;
68050;SDS011;54839;51.364;7.246;2023-11-19T02:22:23;5.23;;;2.40;;
68050;SDS011;54839;51.364;7.246;2023-11-19T02:24:49;5.23;;;3.43;;
68050;SDS011;54839;51.364;7.246;2023-11-19T02:27:31;3.63;;;2.33;;
68050;SDS011;54839;51.364;7.246;2023-11-19T02:30:08;2.60;;;1.60;;
68050;SDS011;54839;51.364;7.246;2023-11-19T02:32:34;2.97;;;1.90;;
68050;SDS011;54839;51.364;7.246;2023-11-19T02:35:01;10.10;;;2.17;;
68050;SDS011;54839;51.364;7.246;2023-11-19T02:37:26;4.20;;;1.83;;
68050;SDS011;54839;51.364;7.246;2023-11-19T02:39:53;4.23;;;1.87;;
68050;SDS011;54839;51.364;7.246;2023-11-19T02:42:18;4.17;;;1.80;;
68050;SDS011;54839;51.364;7.246;2023-11-19T02:44:44;9.43;;;2.20;;
68050;SDS011;54839;51.364;7.246;2023-11-19T02:47:11;3.70;;;1.13;;
68050;SDS011;54839;51.364;7.246;2023-11-19T02:49:36;6.73;;;2.17;;
68050;SDS011;54839;51.364;7.246;2023-11-19T02:52:02;6.93;;;2.40;;
68050;SDS011;54839;51.364;7.246;2023-11-19T02:54:30;5.67;;;2.30;;
68050;SDS011;54839;51.364;7.246;2023-11-19T02:56:59;8.50;;;3.43;;
68050;SDS011;54839;51.364;7.246;2023-11-19T02:59:27;4.73;;;2.73;;
68050;SDS011;54839;51.364;7.246;2023-11-19T03:01:53;3.70;;;2.20;;
68050;SDS011;54839;51.364;7.246;2023-11-19T03:04:20;8.13;;;2.90;;
68050;SDS011;54839;51.364;7.246;2023-11-19T03:06:45;6.90;;;2.57;;
68050;SDS011;54839;51.364;7.246;2023-11-19T03:09:11;4.50;;;2.80;;
68050;SDS011;54839;51.364;7.246;2023-11-19T03:11:37;6.20;;;3.17;;
68050;SDS011;54839;51.364;7.246;2023-11-19T03:14:03;7.57;;;2.80;;
68050;SDS011;54839;51.364;7.246;2023-11-19T03:16:29;6.43;;;2.50;;
68050;SDS011;54839;51.364;7.246;2023-11-19T03:18:55;8.07;;;3.03;;
68050;SDS011;54839;51.364;7.246;2023-11-19T03:21:30;8.60;;;3.23;;
68050;SDS011;54839;51.364;7.246;2023-11-19T03:23:57;6.60;;;2.30;;
68050;SDS011;54839;51.364;7.246;2023-11-19T03:26:25;12.33;;;4.50;;
68050;SDS011;54839;51.364;7.246;2023-11-19T03:28:52;8.63;;;3.47;;
68050;SDS011;54839;51.364;7.246;2023-11-19T03:31:17;9.20;;;4.30;;
68050;SDS011;54839;51.364;7.246;2023-11-19T03:33:43;11.40;;;3.20;;
68050;SDS011;54839;51.364;7.246;2023-11-19T03:36:10;7.80;;;2.50;;
68050;SDS011;54839;51.364;7.246;2023-11-19T03:38:35;5.57;;;1.77;;
68050;SDS011;54839;51.364;7.246;2023-11-19T03:41:01;7.90;;;2.50;;
68050;SDS011;54839;51.364;7.246;2023-11-19T03:43:35;9.17;;;3.77;;
68050;SDS011;54839;51.364;7.246;2023-11-19T03:46:00;6.60;;;2.73;;
68050;SDS011;54839;51.364;7.246;2023-11-19T03:48:26;8.57;;;3.10;;
68050;SDS011;54839;51.364;7.246;2023-11-19T03:50:51;12.63;;;3.87;;
68050;SDS011;54839;51.364;7.246;2023-11-19T03:53:17;10.83;;;3.27;;
68050;SDS011;54839;51.364;7.246;2023-11-19T03:55:43;8.77;;;3.70;;
68050;SDS011;54839;51.364;7.246;2023-11-19T03:58:09;11.50;;;3.37;;
68050;SDS011;54839;51.364;7.246;2023-11-19T04:00:34;12.37;;;2.63;;
68050;SDS011;54839;51.364;7.246;2023-11-19T04:03:00;10.63;;;3.13;;
68050;SDS011;54839;51.364;7.246;2023-11-19T04:05:26;13.63;;;3.53;;
68050;SDS011;54839;51.364;7.246;2023-11-19T04:07:51;8.43;;;2.67;;
68050;SDS011;54839;51.364;7.246;2023-11-19T04:10:17;9.00;;;3.37;;
68050;SDS011;54839;51.364;7.246;2023-11-19T04:12:43;12.27;;;2.80;;
68050;SDS011;54839;51.364;7.246;2023-11-19T04:15:09;9.60;;;2.73;;
68050;SDS011;54839;51.364;7.246;2023-11-19T04:17:35;3.20;;;2.73;;
68050;SDS011;54839;51.364;7.246;2023-11-19T04:20:01;9.43;;;3.30;;
68050;SDS011;54839;51.364;7.246;2023-11-19T04:22:29;8.63;;;3.40;;
68050;SDS011;54839;51.364;7.246;2023-11-19T04:24:54;6.63;;;3.60;;
68050;SDS011;54839;51.364;7.246;2023-11-19T04:27:20;9.63;;;2.47;;
68050;SDS011;54839;51.364;7.246;2023-11-19T04:29:45;7.70;;;3.40;;
68050;SDS011;54839;51.364;7.246;2023-11-19T04:32:12;20.27;;;3.33;;
68050;SDS011;54839;51.364;7.246;2023-11-19T04:34:37;15.73;;;3.53;;
68050;SDS011;54839;51.364;7.246;2023-11-19T04:37:03;11.90;;;2.87;;
68050;SDS011;54839;51.364;7.246;2023-11-19T04:39:29;18.17;;;4.13;;
68050;SDS011;54839;51.364;7.246;2023-11-19T04:41:55;18.70;;;4.10;;
68050;SDS011;54839;51.364;7.246;2023-11-19T04:44:21;10.60;;;3.57;;
68050;SDS011;54839;51.364;7.246;2023-11-19T04:46:47;21.53;;;3.83;;
68050;SDS011;54839;51.364;7.246;2023-11-19T04:49:13;13.90;;;3.90;;
68050;SDS011;54839;51.364;7.246;2023-11-19T04:51:39;12.10;;;4.57;;
68050;SDS011;54839;51.364;7.246;2023-11-19T04:54:06;7.63;;;3.37;;
68050;SDS011;54839;51.364;7.246;2023-11-19T04:56:33;13.80;;;2.80;;
68050;SDS011;54839;51.364;7.246;2023-11-19T04:58:59;12.83;;;2.80;;
68050;SDS011;54839;51.364;7.246;2023-11-19T05:01:24;15.07;;;4.40;;
68050;SDS011;54839;51.364;7.246;2023-11-19T05:03:50;21.47;;;4.10;;
68050;SDS011;54839;51.364;7.246;2023-11-19T05:06:16;9.50;;;2.80;;
68050;SDS011;54839;51.364;7.246;2023-11-19T05:08:41;19.10;;;4.10;;
68050;SDS011;54839;51.364;7.246;2023-11-19T05:11:07;25.10;;;4.70;;
68050;SDS011;54839;51.364;7.246;2023-11-19T05:13:32;18.07;;;5.33;;
68050;SDS011;54839;51.364;7.246;2023-11-19T05:15:58;14.07;;;3.90;;
68050;SDS011;54839;51.364;7.246;2023-11-19T05:18:23;9.13;;;3.70;;
68050;SDS011;54839;51.364;7.246;2023-11-19T05:20:49;15.20;;;4.50;;
68050;SDS011;54839;51.364;7.246;2023-11-19T05:23:14;13.13;;;4.30;;
68050;SDS011;54839;51.364;7.246;2023-11-19T05:25:40;13.00;;;3.97;;
68050;SDS011;54839;51.364;7.246;2023-11-19T05:28:05;16.67;;;4.00;;
68050;SDS011;54839;51.364;7.246;2023-11-19T05:30:31;13.60;;;3.30;;
68050;SDS011;54839;51.364;7.246;2023-11-19T05:32:56;15.20;;;3.90;;
68050;SDS011;54839;51.364;7.246;2023-11-19T05:35:22;17.90;;;4.70;;
68050;SDS011;54839;51.364;7.246;2023-11-19T05:37:47;22.13;;;5.37;;
68050;SDS011;54839;51.364;7.246;2023-11-19T05:40:15;13.90;;;4.00;;
68050;SDS011;54839;51.364;7.246;2023-11-19T05:42:41;15.80;;;4.03;;
68050;SDS011;54839;51.364;7.246;2023-11-19T05:45:07;12.23;;;3.40;;
68050;SDS011;54839;51.364;7.246;2023-11-19T05:47:33;12.73;;;2.63;;
68050;SDS011;54839;51.364;7.246;2023-11-19T05:49:59;21.53;;;4.47;;
68050;SDS011;54839;51.364;7.246;2023-11-19T05:52:24;15.20;;;5.40;;
68050;SDS011;54839;51.364;7.246;2023-11-19T05:54:50;15.40;;;3.63;;
68050;SDS011;54839;51.364;7.246;2023-11-19T05:57:18;14.03;;;3.90;;
68050;SDS011;54839;51.364;7.246;2023-11-19T05:59:48;22.33;;;3.93;;
68050;SDS011;54839;51.364;7.246;2023-11-19T06:02:14;18.17;;;4.03;;
68050;SDS011;54839;51.364;7.246;2023-11-19T06:04:40;17.50;;;4.07;;
68050;SDS011;54839;51.364;7.246;2023-11-19T06:07:08;19.20;;;4.57;;
68050;SDS011;54839;51.364;7.246;2023-11-19T06:09:34;19.87;;;4.30;;
68050;SDS011;54839;51.364;7.246;2023-11-19T06:12:00;16.57;;;4.80;;
68050;SDS011;54839;51.364;7.246;2023-11-19T06:14:27;26.03;;;5.10;;
68050;SDS011;54839;51.364;7.246;2023-11-19T06:16:52;16.43;;;4.10;;
68050;SDS011;54839;51.364;7.246;2023-11-19T06:19:18;23.77;;;4.77;;
68050;SDS011;54839;51.364;7.246;2023-11-19T06:21:43;17.43;;;4.93;;
68050;SDS011;54839;51.364;7.246;2023-11-19T06:24:09;14.80;;;4.10;;
68050;SDS011;54839;51.364;7.246;2023-11-19T06:26:34;23.23;;;4.43;;
68050;SDS011;54839;51.364;7.246;2023-11-19T06:29:00;23.80;;;4.00;;
68050;SDS011;54839;51.364;7.246;2023-11-19T06:31:26;18.10;;;4.33;;
68050;SDS011;54839;51.364;7.246;2023-11-19T06:33:51;9.93;;;2.77;;
68050;SDS011;54839;51.364;7.246;2023-11-19T06:36:17;10.17;;;3.10;;
68050;SDS011;54839;51.364;7.246;2023-11-19T06:38:42;18.30;;;3.47;;
68050;SDS011;54839;51.364;7.246;2023-11-19T06:41:08;8.90;;;2.57;;
68050;SDS011;54839;51.364;7.246;2023-11-19T06:43:34;13.53;;;3.50;;
68050;SDS011;54839;51.364;7.246;2023-11-19T06:46:01;8.83;;;2.87;;
68050;SDS011;54839;51.364;7.246;2023-11-19T06:48:27;22.37;;;4.83;;
68050;SDS011;54839;51.364;7.246;2023-11-19T06:50:52;10.10;;;3.10;;
68050;SDS011;54839;51.364;7.246;2023-11-19T06:53:18;21.57;;;4.57;;
68050;SDS011;54839;51.364;7.246;2023-11-19T06:55:44;10.37;;;2.80;;
68050;SDS011;54839;51.364;7.246;2023-11-19T06:58:09;19.03;;;4.70;;
68050;SDS011;54839;51.364;7.246;2023-11-19T07:00:35;23.43;;;4.60;;
68050;SDS011;54839;51.364;7.246;2023-11-19T07:03:01;11.50;;;3.07;;
68050;SDS011;54839;51.364;7.246;2023-11-19T07:05:26;9.57;;;4.33;;
68050;SDS011;54839;51.364;7.246;2023-11-19T07:07:53;14.80;;;2.97;;
68050;SDS011;54839;51.364;7.246;2023-11-19T07:10:19;16.77;;;4.50;;
68050;SDS011;54839;51.364;7.246;2023-11-19T07:12:45;10.77;;;3.53;;
68050;SDS011;54839;51.364;7.246;2023-11-19T07:15:10;11.90;;;3.73;;
68050;SDS011;54839;51.364;7.246;2023-11-19T07:17:38;20.13;;;5.33;;
68050;SDS011;54839;51.364;7.246;2023-11-19T07:20:05;11.80;;;4.03;;
68050;SDS011;54839;51.364;7.246;2023-11-19T07:22:31;18.87;;;4.40;;
68050;SDS011;54839;51.364;7.246;2023-11-19T07:24:56;18.70;;;3.83;;
68050;SDS011;54839;51.364;7.246;2023-11-19T07:27:22;11.97;;;4.23;;
68050;SDS011;54839;51.364;7.246;2023-11-19T07:29:49;20.67;;;4.60;;
68050;SDS011;54839;51.364;7.246;2023-11-19T07:32:14;20.00;;;4.67;;
68050;SDS011;54839;51.364;7.246;2023-11-19T07:34:40;11.10;;;3.77;;
68050;SDS011;54839;51.364;7.246;2023-11-19T07:37:06;22.07;;;4.50;;
68050;SDS011;54839;51.364;7.246;2023-11-19T07:39:32;9.90;;;2.83;;
68050;SDS011;54839;51.364;7.246;2023-11-19T07:41:57;18.03;;;4.77;;
68050;SDS011;54839;51.364;7.246;2023-11-19T07:44:23;15.43;;;4.30;;
68050;SDS011;54839;51.364;7.246;2023-11-19T07:46:49;20.73;;;6.50;;
68050;SDS011;54839;51.364;7.246;2023-11-19T07:49:15;23.53;;;5.40;;
68050;SDS011;54839;51.364;7.246;2023-11-19T07:51:40;19.70;;;4.90;;
68050;SDS011;54839;51.364;7.246;2023-11-19T07:54:06;16.43;;;6.03;;
68050;SDS011;54839;51.364;7.246;2023-11-19T07:56:33;14.47;;;3.73;;
68050;SDS011;54839;51.364;7.246;2023-11-19T07:59:02;19.20;;;5.13;;
68050;SDS011;54839;51.364;7.246;2023-11-19T08:01:28;11.97;;;4.07;;
68050;SDS011;54839;51.364;7.246;2023-11-19T08:03:53;16.27;;;3.40;;
68050;SDS011;54839;51.364;7.246;2023-11-19T08:06:19;21.83;;;5.30;;
68050;SDS011;54839;51.364;7.246;2023-11-19T08:08:44;22.23;;;4.67;;
68050;SDS011;54839;51.364;7.246;2023-11-19T08:11:10;13.80;;;4.87;;
68050;SDS011;54839;51.364;7.246;2023-11-19T08:13:36;15.13;;;5.23;;
68050;SDS011;54839;51.364;7.246;2023-11-19T08:16:01;24.13;;;5.07;;
68050;SDS011;54839;51.364;7.246;2023-11-19T08:18:27;25.57;;;6.70;;
68050;SDS011;54839;51.364;7.246;2023-11-19T08:20:52;21.30;;;6.80;;
68050;SDS011;54839;51.364;7.246;2023-11-19T08:23:18;24.20;;;4.73;;
68050;SDS011;54839;51.364;7.246;2023-11-19T08:25:45;16.20;;;3.67;;
68050;SDS011;54839;51.364;7.246;2023-11-19T08:28:11;25.60;;;7.03;;
68050;SDS011;54839;51.364;7.246;2023-11-19T08:30:36;27.77;;;6.03;;
68050;SDS011;54839;51.364;7.246;2023-11-19T08:33:02;20.20;;;4.70;;
68050;SDS011;54839;51.364;7.246;2023-11-19T08:35:28;13.73;;;4.30;;
68050;SDS011;54839;51.364;7.246;2023-11-19T08:37:55;23.27;;;6.30;;
68050;SDS011;54839;51.364;7.246;2023-11-19T08:40:20;32.47;;;5.47;;
68050;SDS011;54839;51.364;7.246;2023-11-19T08:42:46;17.67;;;6.43;;
68050;SDS011;54839;51.364;7.246;2023-11-19T08:45:12;21.03;;;4.20;;
68050;SDS011;54839;51.364;7.246;2023-11-19T08:47:37;13.10;;;4.67;;
68050;SDS011;54839;51.364;7.246;2023-11-19T08:50:03;19.47;;;3.73;;
68050;SDS011;54839;51.364;7.246;2023-11-19T08:52:29;21.37;;;5.20;;
68050;SDS011;54839;51.364;7.246;2023-11-19T08:54:55;12.33;;;3.47;;
68050;SDS011;54839;51.364;7.246;2023-11-19T08:57:21;30.17;;;4.43;;
68050;SDS011;54839;51.364;7.246;2023-11-19T08:59:46;26.23;;;7.33;;
68050;SDS011;54839;51.364;7.246;2023-11-19T09:02:12;17.30;;;5.60;;
68050;SDS011;54839;51.364;7.246;2023-11-19T09:04:38;20.90;;;5.73;;
68050;SDS011;54839;51.364;7.246;2023-11-19T09:07:03;26.03;;;6.50;;
68050;SDS011;54839;51.364;7.246;2023-11-19T09:09:29;20.53;;;5.43;;
68050;SDS011;54839;51.364;7.246;2023-11-19T09:11:55;15.03;;;4.70;;
68050;SDS011;54839;51.364;7.246;2023-11-19T09:14:20;11.73;;;3.87;;
68050;SDS011;54839;51.364;7.246;2023-11-19T09:16:50;15.90;;;4.20;;
68050;SDS011;54839;51.364;7.246;2023-11-19T09:19:16;21.50;;;4.10;;
68050;SDS011;54839;51.364;7.246;2023-11-19T09:21:42;25.27;;;6.90;;
68050;SDS011;54839;51.364;7.246;2023-11-19T09:24:08;19.80;;;5.57;;
68050;SDS011;54839;51.364;7.246;2023-11-19T09:26:33;23.40;;;6.00;;
68050;SDS011;54839;51.364;7.246;2023-11-19T09:29:01;27.20;;;6.47;;
68050;SDS011;54839;51.364;7.246;2023-11-19T09:31:26;25.63;;;4.53;;
68050;SDS011;54839;51.364;7.246;2023-11-19T09:33:52;23.50;;;6.00;;
68050;SDS011;54839;51.364;7.246;2023-11-19T09:36:17;29.83;;;6.77;;
68050;SDS011;54839;51.364;7.246;2023-11-19T09:38:44;16.37;;;4.33;;
68050;SDS011;54839;51.364;7.246;2023-11-19T09:41:09;15.10;;;4.17;;
68050;SDS011;54839;51.364;7.246;2023-11-19T09:43:37;21.13;;;5.70;;
68050;SDS011;54839;51.364;7.246;2023-11-19T09:46:04;20.43;;;5.73;;
68050;SDS011;54839;51.364;7.246;2023-11-19T09:48:35;15.60;;;4.77;;
68050;SDS011;54839;51.364;7.246;2023-11-19T09:51:02;25.33;;;5.20;;
68050;SDS011;54839;51.364;7.246;2023-11-19T09:53:29;18.63;;;5.80;;
68050;SDS011;54839;51.364;7.246;2023-11-19T09:55:55;16.43;;;4.40;;
68050;SDS011;54839;51.364;7.246;2023-11-19T09:58:21;15.70;;;5.07;;
68050;SDS011;54839;51.364;7.246;2023-11-19T10:00:47;17.50;;;3.27;;
68050;SDS011;54839;51.364;7.246;2023-11-19T10:03:14;23.57;;;5.67;;
68050;SDS011;54839;51.364;7.246;2023-11-19T10:05:40;14.73;;;4.57;;
68050;SDS011;54839;51.364;7.246;2023-11-19T10:08:06;19.87;;;4.50;;
68050;SDS011;54839;51.364;7.246;2023-11-19T10:10:33;18.87;;;5.10;;
68050;SDS011;54839;51.364;7.246;2023-11-19T10:12:59;25.93;;;5.50;;
68050;SDS011;54839;51.364;7.246;2023-11-19T10:15:25;21.10;;;4.13;;
68050;SDS011;54839;51.364;7.246;2023-11-19T10:17:52;12.47;;;4.80;;
68050;SDS011;54839;51.364;7.246;2023-11-19T10:20:20;19.20;;;5.03;;
68050;SDS011;54839;51.364;7.246;2023-11-19T10:22:45;30.70;;;7.30;;
68050;SDS011;54839;51.364;7.246;2023-11-19T10:25:24;23.23;;;6.13;;
68050;SDS011;54839;51.364;7.246;2023-11-19T10:27:54;14.30;;;3.43;;
68050;SDS011;54839;51.364;7.246;2023-11-19T10:30:29;16.80;;;4.67;;
68050;SDS011;54839;51.364;7.246;2023-11-19T10:35:27;16.97;;;4.10;;
68050;SDS011;54839;51.364;7.246;2023-11-19T10:37:52;20.70;;;4.40;;
68050;SDS011;54839;51.364;7.246;2023-11-19T10:40:18;30.70;;;5.57;;
68050;SDS011;54839;51.364;7.246;2023-11-19T10:42:43;28.70;;;5.50;;
68050;SDS011;54839;51.364;7.246;2023-11-19T10:45:21;20.50;;;4.60;;
68050;SDS011;54839;51.364;7.246;2023-11-19T10:47:51;17.00;;;6.90;;
68050;SDS011;54839;51.364;7.246;2023-11-19T10:50:17;28.50;;;6.27;;
68050;SDS011;54839;51.364;7.246;2023-11-19T10:52:43;12.70;;;3.60;;
68050;SDS011;54839;51.364;7.246;2023-11-19T10:55:11;15.00;;;5.20;;
68050;SDS011;54839;51.364;7.246;2023-11-19T10:57:40;18.30;;;6.37;;
68050;SDS011;54839;51.364;7.246;2023-11-19T11:00:11;18.20;;;4.53;;
68050;SDS011;54839;51.364;7.246;2023-11-19T11:02:43;26.47;;;5.03;;
68050;SDS011;54839;51.364;7.246;2023-11-19T11:05:14;14.83;;;3.93;;
68050;SDS011;54839;51.364;7.246;2023-11-19T11:07:41;16.47;;;4.13;;
68050;SDS011;54839;51.364;7.246;2023-11-19T11:10:09;20.23;;;4.03;;
68050;SDS011;54839;51.364;7.246;2023-11-19T11:12:38;17.63;;;3.57;;
68050;SDS011;54839;51.364;7.246;2023-11-19T11:15:06;26.07;;;4.17;;
68050;SDS011;54839;51.364;7.246;2023-11-19T11:17:33;15.80;;;3.67;;
68050;SDS011;54839;51.364;7.246;2023-11-19T11:19:59;15.93;;;4.13;;
68050;SDS011;54839;51.364;7.246;2023-11-19T11:22:25;12.43;;;3.47;;
68050;SDS011;54839;51.364;7.246;2023-11-19T11:35:52;18.03;;;4.20;;
68050;SDS011;54839;51.364;7.246;2023-11-19T11:38:30;17.07;;;4.20;;
68050;SDS011;54839;51.364;7.246;2023-11-19T11:48:57;8.83;;;2.97;;
68050;SDS011;54839;51.364;7.246;2023-11-19T11:59:37;20.43;;;5.97;;
68050;SDS011;54839;51.364;7.246;2023-11-19T12:02:09;13.80;;;3.63;;
68050;SDS011;54839;51.364;7.246;2023-11-19T12:04:41;22.77;;;8.10;;
68050;SDS011;54839;51.364;7.246;2023-11-19T12:07:23;14.93;;;4.40;;
68050;SDS011;54839;51.364;7.246;2023-11-19T12:09:53;12.17;;;3.87;;
68050;SDS011;54839;51.364;7.246;2023-11-19T12:12:32;8.60;;;3.63;;
68050;SDS011;54839;51.364;7.246;2023-11-19T12:20:01;14.07;;;3.37;;
68050;SDS011;54839;51.364;7.246;2023-11-19T12:22:28;15.90;;;4.90;;
68050;SDS011;54839;51.364;7.246;2023-11-19T12:24:54;11.60;;;4.50;;
68050;SDS011;54839;51.364;7.246;2023-11-19T12:27:20;17.23;;;3.40;;
68050;SDS011;54839;51.364;7.246;2023-11-19T12:29:49;15.00;;;4.50;;
68050;SDS011;54839;51.364;7.246;2023-11-19T12:32:15;14.70;;;3.30;;
68050;SDS011;54839;51.364;7.246;2023-11-19T12:34:41;14.30;;;3.40;;
68050;SDS011;54839;51.364;7.246;2023-11-19T12:37:07;14.20;;;3.50;;
68050;SDS011;54839;51.364;7.246;2023-11-19T12:39:34;6.53;;;3.43;;
68050;SDS011;54839;51.364;7.246;2023-11-19T12:42:00;29.93;;;5.43;;
68050;SDS011;54839;51.364;7.246;2023-11-19T12:44:27;17.70;;;4.23;;
68050;SDS011;54839;51.364;7.246;2023-11-19T12:47:02;10.53;;;4.17;;
68050;SDS011;54839;51.364;7.246;2023-11-19T12:49:29;16.30;;;3.67;;
68050;SDS011;54839;51.364;7.246;2023-11-19T12:51:54;14.23;;;3.67;;
68050;SDS011;54839;51.364;7.246;2023-11-19T12:54:20;12.53;;;4.53;;
68050;SDS011;54839;51.364;7.246;2023-11-19T12:56:56;11.37;;;2.17;;
68050;SDS011;54839;51.364;7.246;2023-11-19T12:59:22;10.07;;;3.10;;
68050;SDS011;54839;51.364;7.246;2023-11-19T13:01:59;13.07;;;4.40;;
68050;SDS011;54839;51.364;7.246;2023-11-19T13:04:29;14.17;;;3.10;;
68050;SDS011;54839;51.364;7.246;2023-11-19T13:07:01;22.37;;;4.10;;
68050;SDS011;54839;51.364;7.246;2023-11-19T13:09:29;11.20;;;3.30;;
68050;SDS011;54839;51.364;7.246;2023-11-19T13:11:55;18.63;;;4.83;;
68050;SDS011;54839;51.364;7.246;2023-11-19T13:14:21;9.37;;;3.23;;
68050;SDS011;54839;51.364;7.246;2023-11-19T13:16:48;13.00;;;2.47;;
68050;SDS011;54839;51.364;7.246;2023-11-19T13:19:17;12.37;;;3.87;;
68050;SDS011;54839;51.364;7.246;2023-11-19T13:21:44;11.97;;;3.30;;
68050;SDS011;54839;51.364;7.246;2023-11-19T13:24:12;12.27;;;3.20;;
68050;SDS011;54839;51.364;7.246;2023-11-19T13:26:38;12.23;;;3.43;;
68050;SDS011;54839;51.364;7.246;2023-11-19T13:29:04;8.53;;;2.33;;
68050;SDS011;54839;51.364;7.246;2023-11-19T13:31:29;21.50;;;5.00;;
68050;SDS011;54839;51.364;7.246;2023-11-19T13:33:55;16.03;;;3.13;;
68050;SDS011;54839;51.364;7.246;2023-11-19T13:36:23;10.47;;;4.03;;
68050;SDS011;54839;51.364;7.246;2023-11-19T13:38:48;20.07;;;3.43;;
68050;SDS011;54839;51.364;7.246;2023-11-19T13:41:14;16.63;;;4.43;;
68050;SDS011;54839;51.364;7.246;2023-11-19T13:43:39;17.80;;;5.00;;
68050;SDS011;54839;51.364;7.246;2023-11-19T13:46:05;14.00;;;4.77;;
68050;SDS011;54839;51.364;7.246;2023-11-19T13:48:31;19.03;;;4.93;;
68050;SDS011;54839;51.364;7.246;2023-11-19T13:50:57;12.10;;;3.33;;
68050;SDS011;54839;51.364;7.246;2023-11-19T13:53:22;22.60;;;4.47;;
68050;SDS011;54839;51.364;7.246;2023-11-19T13:55:51;12.90;;;3.00;;
68050;SDS011;54839;51.364;7.246;2023-11-19T13:58:18;17.20;;;3.90;;
68050;SDS011;54839;51.364;7.246;2023-11-19T14:00:43;13.50;;;3.83;;
68050;SDS011;54839;51.364;7.246;2023-11-19T14:03:09;18.20;;;4.10;;
68050;SDS011;54839;51.364;7.246;2023-11-19T14:05:38;7.07;;;2.90;;
68050;SDS011;54839;51.364;7.246;2023-11-19T14:08:07;12.77;;;2.37;;
68050;SDS011;54839;51.364;7.246;2023-11-19T14:10:38;20.93;;;5.50;;
68050;SDS011;54839;51.364;7.246;2023-11-19T14:13:07;10.87;;;3.33;;
68050;SDS011;54839;51.364;7.246;2023-11-19T14:15:33;17.90;;;3.67;;
68050;SDS011;54839;51.364;7.246;2023-11-19T14:17:58;14.80;;;3.27;;
68050;SDS011;54839;51.364;7.246;2023-11-19T14:20:24;17.63;;;3.03;;
68050;SDS011;54839;51.364;7.246;2023-11-19T14:22:50;18.83;;;4.20;;
68050;SDS011;54839;51.364;7.246;2023-11-19T14:25:17;9.00;;;3.73;;
68050;SDS011;54839;51.364;7.246;2023-11-19T14:27:44;13.10;;;2.63;;
68050;SDS011;54839;51.364;7.246;2023-11-19T14:30:11;12.60;;;4.23;;
68050;SDS011;54839;51.364;7.246;2023-11-19T14:32:41;11.20;;;3.03;;
68050;SDS011;54839;51.364;7.246;2023-11-19T14:35:09;15.93;;;3.20;;
68050;SDS011;54839;51.364;7.246;2023-11-19T14:37:35;8.47;;;2.67;;
68050;SDS011;54839;51.364;7.246;2023-11-19T14:40:00;16.27;;;4.17;;
68050;SDS011;54839;51.364;7.246;2023-11-19T14:42:29;7.70;;;3.50;;
68050;SDS011;54839;51.364;7.246;2023-11-19T14:44:55;17.13;;;5.03;;
68050;SDS011;54839;51.364;7.246;2023-11-19T14:47:21;13.87;;;3.77;;
68050;SDS011;54839;51.364;7.246;2023-11-19T14:49:46;17.80;;;3.50;;
68050;SDS011;54839;51.364;7.246;2023-11-19T14:52:12;16.03;;;4.57;;
68050;SDS011;54839;51.364;7.246;2023-11-19T14:54:38;22.23;;;5.60;;
68050;SDS011;54839;51.364;7.246;2023-11-19T14:57:04;17.10;;;4.53;;
68050;SDS011;54839;51.364;7.246;2023-11-19T14:59:33;15.80;;;4.77;;
68050;SDS011;54839;51.364;7.246;2023-11-19T15:01:58;13.93;;;3.60;;
68050;SDS011;54839;51.364;7.246;2023-11-19T15:04:25;17.37;;;5.53;;
68050;SDS011;54839;51.364;7.246;2023-11-19T15:06:51;14.73;;;4.57;;
68050;SDS011;54839;51.364;7.246;2023-11-19T15:09:17;9.47;;;2.90;;